sensor_id;sensor_type;location;lat;lon;timestamp;pressure;altitude;pressure_sealevel;temperature;humidity
4981;BME280;2507;50.392;7.482;2023-04-20T00:01:14;101047.50;;;7.43;49.42
4981;BME280;2507;50.392;7.482;2023-04-20T00:03:39;101046.84;;;7.55;48.59
4981;BME280;2507;50.392;7.482;2023-04-20T00:06:05;101039.09;;;7.53;48.53
4981;BME280;2507;50.392;7.482;2023-04-20T00:08:30;101040.72;;;7.56;48.56
4981;BME280;2507;50.392;7.482;2023-04-20T00:10:56;101042.56;;;7.54;48.29
4981;BME280;2507;50.392;7.482;2023-04-20T00:13:21;101040.72;;;7.56;48.09
4981;BME280;2507;50.392;7.482;2023-04-20T00:15:46;101037.19;;;7.57;47.95
4981;BME280;2507;50.392;7.482;2023-04-20T00:18:11;101035.72;;;7.68;47.80
4981;BME280;2507;50.392;7.482;2023-04-20T00:20:37;101036.84;;;7.80;47.85
4981;BME280;2507;50.392;7.482;2023-04-20T00:23:02;101024.97;;;7.90;47.86
4981;BME280;2507;50.392;7.482;2023-04-20T00:25:28;101014.81;;;8.01;47.46
4981;BME280;2507;50.392;7.482;2023-04-20T00:27:54;101013.72;;;8.05;47.46
4981;BME280;2507;50.392;7.482;2023-04-20T00:30:20;101000.75;;;8.19;47.55
4981;BME280;2507;50.392;7.482;2023-04-20T00:32:45;101004.50;;;8.31;47.50
4981;BME280;2507;50.392;7.482;2023-04-20T00:35:11;101003.53;;;8.16;48.16
4981;BME280;2507;50.392;7.482;2023-04-20T00:37:36;101005.63;;;8.09;48.41
4981;BME280;2507;50.392;7.482;2023-04-20T00:40:01;100998.38;;;8.14;48.06
4981;BME280;2507;50.392;7.482;2023-04-20T00:42:28;100986.25;;;8.29;48.21
4981;BME280;2507;50.392;7.482;2023-04-20T00:44:53;100992.19;;;8.33;49.02
4981;BME280;2507;50.392;7.482;2023-04-20T00:47:18;100985.94;;;8.35;48.51
4981;BME280;2507;50.392;7.482;2023-04-20T00:49:44;100982.97;;;8.41;48.31
4981;BME280;2507;50.392;7.482;2023-04-20T00:52:09;100972.25;;;8.46;48.44
4981;BME280;2507;50.392;7.482;2023-04-20T00:54:35;100976.47;;;8.48;48.08
4981;BME280;2507;50.392;7.482;2023-04-20T00:57:00;100965.81;;;8.51;48.02
4981;BME280;2507;50.392;7.482;2023-04-20T00:59:26;100954.59;;;8.49;48.01
4981;BME280;2507;50.392;7.482;2023-04-20T01:01:52;100961.03;;;8.59;47.58
4981;BME280;2507;50.392;7.482;2023-04-20T01:04:17;100952.66;;;8.68;47.43
4981;BME280;2507;50.392;7.482;2023-04-20T01:06:43;100950.13;;;8.67;47.66
4981;BME280;2507;50.392;7.482;2023-04-20T01:09:08;100948.59;;;8.63;47.53
4981;BME280;2507;50.392;7.482;2023-04-20T01:11:34;100945.56;;;8.55;48.15
4981;BME280;2507;50.392;7.482;2023-04-20T01:13:59;100934.28;;;8.54;48.63
4981;BME280;2507;50.392;7.482;2023-04-20T01:16:25;100933.66;;;8.65;48.13
4981;BME280;2507;50.392;7.482;2023-04-20T01:18:50;100924.88;;;8.66;47.75
4981;BME280;2507;50.392;7.482;2023-04-20T01:21:18;100922.31;;;8.50;48.27
4981;BME280;2507;50.392;7.482;2023-04-20T01:23:44;100931.25;;;8.46;48.17
4981;BME280;2507;50.392;7.482;2023-04-20T01:26:12;100919.78;;;8.49;48.19
4981;BME280;2507;50.392;7.482;2023-04-20T01:28:38;100916.38;;;8.62;48.06
4981;BME280;2507;50.392;7.482;2023-04-20T01:31:04;100915.03;;;8.71;47.73
4981;BME280;2507;50.392;7.482;2023-04-20T01:33:30;100915.03;;;8.71;48.54
4981;BME280;2507;50.392;7.482;2023-04-20T01:35:55;100910.34;;;8.76;48.58
4981;BME280;2507;50.392;7.482;2023-04-20T01:38:22;100914.19;;;8.84;48.41
4981;BME280;2507;50.392;7.482;2023-04-20T01:40:48;100922.03;;;8.84;48.56
4981;BME280;2507;50.392;7.482;2023-04-20T01:43:15;100914.09;;;8.86;48.37
4981;BME280;2507;50.392;7.482;2023-04-20T01:45:40;100907.94;;;8.87;48.87
4981;BME280;2507;50.392;7.482;2023-04-20T01:48:05;100904.56;;;8.85;48.85
4981;BME280;2507;50.392;7.482;2023-04-20T01:50:31;100906.91;;;8.89;48.89
4981;BME280;2507;50.392;7.482;2023-04-20T01:52:56;100906.16;;;8.87;48.19
4981;BME280;2507;50.392;7.482;2023-04-20T01:55:21;100901.47;;;8.78;48.28
4981;BME280;2507;50.392;7.482;2023-04-20T01:57:46;100913.06;;;8.74;47.97
4981;BME280;2507;50.392;7.482;2023-04-20T02:00:12;100912.13;;;8.75;47.65
4981;BME280;2507;50.392;7.482;2023-04-20T02:02:37;100906.88;;;8.75;47.42
4981;BME280;2507;50.392;7.482;2023-04-20T02:05:03;100910.59;;;8.71;46.93
4981;BME280;2507;50.392;7.482;2023-04-20T02:07:28;100901.41;;;8.80;47.03
4981;BME280;2507;50.392;7.482;2023-04-20T02:09:55;100898.03;;;8.78;46.42
4981;BME280;2507;50.392;7.482;2023-04-20T02:12:20;100910.69;;;8.70;46.80
4981;BME280;2507;50.392;7.482;2023-04-20T02:14:45;100915.25;;;8.66;46.88
4981;BME280;2507;50.392;7.482;2023-04-20T02:17:11;100914.31;;;8.67;47.07
4981;BME280;2507;50.392;7.482;2023-04-20T02:19:36;100912.66;;;8.66;47.09
4981;BME280;2507;50.392;7.482;2023-04-20T02:22:02;100929.22;;;8.51;50.03
4981;BME280;2507;50.392;7.482;2023-04-20T02:24:27;100934.91;;;8.28;51.64
4981;BME280;2507;50.392;7.482;2023-04-20T02:26:52;100923.84;;;8.23;51.10
4981;BME280;2507;50.392;7.482;2023-04-20T02:29:18;100923.25;;;8.18;53.44
4981;BME280;2507;50.392;7.482;2023-04-20T02:31:43;100931.25;;;8.15;54.24
4981;BME280;2507;50.392;7.482;2023-04-20T02:34:09;100921.31;;;8.21;53.24
4981;BME280;2507;50.392;7.482;2023-04-20T02:36:35;100918.94;;;8.17;55.89
4981;BME280;2507;50.392;7.482;2023-04-20T02:39:00;100903.88;;;8.06;57.30
4981;BME280;2507;50.392;7.482;2023-04-20T02:41:25;100898.38;;;8.11;56.98
4981;BME280;2507;50.392;7.482;2023-04-20T02:43:50;100892.47;;;8.07;58.21
4981;BME280;2507;50.392;7.482;2023-04-20T02:46:16;100897.78;;;8.06;58.51
4981;BME280;2507;50.392;7.482;2023-04-20T02:48:41;100888.94;;;8.08;59.12
4981;BME280;2507;50.392;7.482;2023-04-20T02:51:07;100893.09;;;8.12;58.97
4981;BME280;2507;50.392;7.482;2023-04-20T02:53:33;100896.19;;;8.19;60.18
4981;BME280;2507;50.392;7.482;2023-04-20T02:55:58;100891.13;;;8.16;60.74
4981;BME280;2507;50.392;7.482;2023-04-20T02:58:23;100904.69;;;8.22;61.16
4981;BME280;2507;50.392;7.482;2023-04-20T03:00:49;100882.16;;;8.20;61.69
4981;BME280;2507;50.392;7.482;2023-04-20T03:03:14;100887.75;;;8.14;61.62
4981;BME280;2507;50.392;7.482;2023-04-20T03:05:39;100872.00;;;8.15;62.12
4981;BME280;2507;50.392;7.482;2023-04-20T03:08:05;100863.47;;;8.27;62.56
4981;BME280;2507;50.392;7.482;2023-04-20T03:10:31;100871.56;;;8.39;63.58
4981;BME280;2507;50.392;7.482;2023-04-20T03:12:57;100860.66;;;8.46;63.05
4981;BME280;2507;50.392;7.482;2023-04-20T03:15:22;100870.31;;;8.60;63.41
4981;BME280;2507;50.392;7.482;2023-04-20T03:17:48;100862.50;;;8.74;62.41
4981;BME280;2507;50.392;7.482;2023-04-20T03:20:13;100881.13;;;8.54;62.11
4981;BME280;2507;50.392;7.482;2023-04-20T03:22:39;100861.84;;;8.41;63.59
4981;BME280;2507;50.392;7.482;2023-04-20T03:25:04;100894.06;;;8.41;62.92
4981;BME280;2507;50.392;7.482;2023-04-20T03:27:30;100882.88;;;8.23;63.99
4981;BME280;2507;50.392;7.482;2023-04-20T03:29:55;100869.63;;;8.11;65.51
4981;BME280;2507;50.392;7.482;2023-04-20T03:32:21;100873.50;;;8.04;66.61
4981;BME280;2507;50.392;7.482;2023-04-20T03:34:46;100871.19;;;7.99;67.37
4981;BME280;2507;50.392;7.482;2023-04-20T03:37:11;100892.84;;;8.01;67.80
4981;BME280;2507;50.392;7.482;2023-04-20T03:39:37;100860.34;;;8.05;67.56
4981;BME280;2507;50.392;7.482;2023-04-20T03:42:03;100860.63;;;8.01;65.50
4981;BME280;2507;50.392;7.482;2023-04-20T03:44:28;100858.91;;;8.31;65.85
4981;BME280;2507;50.392;7.482;2023-04-20T03:46:53;100866.50;;;8.20;66.86
4981;BME280;2507;50.392;7.482;2023-04-20T03:49:23;100865.94;;;7.99;69.94
4981;BME280;2507;50.392;7.482;2023-04-20T03:51:49;100862.66;;;7.96;69.30
4981;BME280;2507;50.392;7.482;2023-04-20T03:54:14;100859.59;;;8.19;69.57
4981;BME280;2507;50.392;7.482;2023-04-20T03:56:40;100855.47;;;8.31;69.35
4981;BME280;2507;50.392;7.482;2023-04-20T03:59:05;100851.91;;;8.32;69.10
4981;BME280;2507;50.392;7.482;2023-04-20T04:01:30;100853.69;;;8.31;69.61
4981;BME280;2507;50.392;7.482;2023-04-20T04:03:56;100884.38;;;8.27;69.82
4981;BME280;2507;50.392;7.482;2023-04-20T04:06:21;100862.25;;;8.03;68.62
4981;BME280;2507;50.392;7.482;2023-04-20T04:08:47;100870.91;;;7.73;67.56
4981;BME280;2507;50.392;7.482;2023-04-20T04:11:12;100852.81;;;7.54;68.91
4981;BME280;2507;50.392;7.482;2023-04-20T04:13:38;100854.13;;;7.46;69.03
4981;BME280;2507;50.392;7.482;2023-04-20T04:16:03;100859.28;;;7.47;68.00
4981;BME280;2507;50.392;7.482;2023-04-20T04:18:30;100853.38;;;7.44;68.02
4981;BME280;2507;50.392;7.482;2023-04-20T04:20:57;100844.13;;;7.38;68.57
4981;BME280;2507;50.392;7.482;2023-04-20T04:23:22;100880.13;;;7.32;69.76
4981;BME280;2507;50.392;7.482;2023-04-20T04:25:47;100850.66;;;7.30;71.22
4981;BME280;2507;50.392;7.482;2023-04-20T04:28:13;100844.19;;;7.21;70.07
4981;BME280;2507;50.392;7.482;2023-04-20T04:30:39;100852.50;;;7.12;69.62
4981;BME280;2507;50.392;7.482;2023-04-20T04:33:04;100842.53;;;7.03;70.68
4981;BME280;2507;50.392;7.482;2023-04-20T04:35:30;100847.22;;;6.96;71.83
4981;BME280;2507;50.392;7.482;2023-04-20T04:37:55;100860.34;;;6.95;72.29
4981;BME280;2507;50.392;7.482;2023-04-20T04:40:21;100836.19;;;6.91;72.58
4981;BME280;2507;50.392;7.482;2023-04-20T04:42:46;100857.81;;;6.93;73.11
4981;BME280;2507;50.392;7.482;2023-04-20T04:45:12;100830.41;;;7.02;73.14
4981;BME280;2507;50.392;7.482;2023-04-20T04:47:38;100835.63;;;7.02;73.33
4981;BME280;2507;50.392;7.482;2023-04-20T04:50:06;100840.28;;;7.12;73.96
4981;BME280;2507;50.392;7.482;2023-04-20T04:52:33;100832.34;;;7.47;73.00
4981;BME280;2507;50.392;7.482;2023-04-20T04:54:59;100843.44;;;7.50;73.38
4981;BME280;2507;50.392;7.482;2023-04-20T04:57:24;100832.56;;;7.42;74.37
4981;BME280;2507;50.392;7.482;2023-04-20T04:59:50;100835.34;;;7.39;74.99
4981;BME280;2507;50.392;7.482;2023-04-20T05:02:16;100834.44;;;7.56;74.58
4981;BME280;2507;50.392;7.482;2023-04-20T05:04:41;100844.44;;;7.48;74.06
4981;BME280;2507;50.392;7.482;2023-04-20T05:07:06;100836.03;;;7.43;74.60
4981;BME280;2507;50.392;7.482;2023-04-20T05:09:34;100830.13;;;7.55;74.58
4981;BME280;2507;50.392;7.482;2023-04-20T05:11:59;100829.13;;;7.57;74.23
4981;BME280;2507;50.392;7.482;2023-04-20T05:14:25;100832.41;;;7.61;74.29
4981;BME280;2507;50.392;7.482;2023-04-20T05:16:50;100823.22;;;7.69;74.37
4981;BME280;2507;50.392;7.482;2023-04-20T05:19:16;100836.66;;;7.63;73.87
4981;BME280;2507;50.392;7.482;2023-04-20T05:21:41;100833.00;;;7.66;73.46
4981;BME280;2507;50.392;7.482;2023-04-20T05:24:07;100830.31;;;7.67;73.41
4981;BME280;2507;50.392;7.482;2023-04-20T05:26:32;100825.78;;;7.71;73.07
4981;BME280;2507;50.392;7.482;2023-04-20T05:28:57;100830.41;;;7.81;71.90
4981;BME280;2507;50.392;7.482;2023-04-20T05:31:23;100829.38;;;7.84;72.33
4981;BME280;2507;50.392;7.482;2023-04-20T05:33:48;100852.13;;;7.66;72.73
4981;BME280;2507;50.392;7.482;2023-04-20T05:36:13;100819.44;;;7.75;73.39
4981;BME280;2507;50.392;7.482;2023-04-20T05:38:39;100822.66;;;7.80;73.22
4981;BME280;2507;50.392;7.482;2023-04-20T05:41:04;100822.81;;;7.61;73.54
4981;BME280;2507;50.392;7.482;2023-04-20T05:43:29;100828.38;;;7.86;72.85
4981;BME280;2507;50.392;7.482;2023-04-20T05:45:55;100823.06;;;7.88;72.32
4981;BME280;2507;50.392;7.482;2023-04-20T05:48:20;100829.78;;;7.92;72.29
4981;BME280;2507;50.392;7.482;2023-04-20T05:50:45;100824.72;;;8.04;72.47
4981;BME280;2507;50.392;7.482;2023-04-20T05:53:11;100827.50;;;8.01;71.40
4981;BME280;2507;50.392;7.482;2023-04-20T05:55:36;100825.66;;;7.88;71.25
4981;BME280;2507;50.392;7.482;2023-04-20T05:58:01;100840.09;;;7.79;72.32
4981;BME280;2507;50.392;7.482;2023-04-20T06:00:27;100833.91;;;7.80;71.80
4981;BME280;2507;50.392;7.482;2023-04-20T06:02:52;100826.09;;;7.96;71.93
4981;BME280;2507;50.392;7.482;2023-04-20T06:05:18;100826.91;;;8.12;71.70
4981;BME280;2507;50.392;7.482;2023-04-20T06:07:45;100834.41;;;8.18;71.07
4981;BME280;2507;50.392;7.482;2023-04-20T06:10:10;100821.91;;;8.07;71.29
4981;BME280;2507;50.392;7.482;2023-04-20T06:12:35;100819.31;;;8.07;72.15
4981;BME280;2507;50.392;7.482;2023-04-20T06:15:01;100826.63;;;8.32;72.03
4981;BME280;2507;50.392;7.482;2023-04-20T06:17:26;100820.56;;;8.46;70.43
4981;BME280;2507;50.392;7.482;2023-04-20T06:19:52;100812.34;;;8.38;71.35
4981;BME280;2507;50.392;7.482;2023-04-20T06:22:18;100819.75;;;8.45;71.17
4981;BME280;2507;50.392;7.482;2023-04-20T06:24:43;100815.75;;;8.54;71.16
4981;BME280;2507;50.392;7.482;2023-04-20T06:27:09;100820.88;;;8.55;71.29
4981;BME280;2507;50.392;7.482;2023-04-20T06:29:35;100816.16;;;8.62;71.51
4981;BME280;2507;50.392;7.482;2023-04-20T06:32:00;100810.53;;;8.54;72.24
4981;BME280;2507;50.392;7.482;2023-04-20T06:34:25;100817.53;;;8.53;71.94
4981;BME280;2507;50.392;7.482;2023-04-20T06:36:51;100814.47;;;8.61;72.70
4981;BME280;2507;50.392;7.482;2023-04-20T06:39:16;100809.88;;;8.78;72.76
4981;BME280;2507;50.392;7.482;2023-04-20T06:41:42;100821.13;;;9.08;71.58
4981;BME280;2507;50.392;7.482;2023-04-20T06:44:08;100823.75;;;8.94;69.77
4981;BME280;2507;50.392;7.482;2023-04-20T06:46:33;100814.97;;;8.81;68.69
4981;BME280;2507;50.392;7.482;2023-04-20T06:48:58;100818.69;;;8.77;68.49
4981;BME280;2507;50.392;7.482;2023-04-20T06:51:24;100817.94;;;8.75;68.99
4981;BME280;2507;50.392;7.482;2023-04-20T06:53:51;100817.53;;;8.67;69.34
4981;BME280;2507;50.392;7.482;2023-04-20T06:56:16;100823.28;;;8.44;70.24
4981;BME280;2507;50.392;7.482;2023-04-20T06:58:41;100816.75;;;8.21;69.87
4981;BME280;2507;50.392;7.482;2023-04-20T07:01:06;100819.53;;;7.89;72.19
4981;BME280;2507;50.392;7.482;2023-04-20T07:03:32;100824.91;;;7.86;72.83
4981;BME280;2507;50.392;7.482;2023-04-20T07:05:57;100807.88;;;7.94;74.31
4981;BME280;2507;50.392;7.482;2023-04-20T07:08:23;100818.63;;;8.19;74.33
4981;BME280;2507;50.392;7.482;2023-04-20T07:10:48;100813.84;;;8.12;72.05
4981;BME280;2507;50.392;7.482;2023-04-20T07:13:13;100810.22;;;7.99;72.44
4981;BME280;2507;50.392;7.482;2023-04-20T07:15:38;100814.13;;;7.92;72.13
4981;BME280;2507;50.392;7.482;2023-04-20T07:18:04;100811.22;;;7.96;72.80
4981;BME280;2507;50.392;7.482;2023-04-20T07:20:30;100813.16;;;8.24;73.01
4981;BME280;2507;50.392;7.482;2023-04-20T07:22:55;100809.34;;;8.87;70.52
4981;BME280;2507;50.392;7.482;2023-04-20T07:25:20;100808.03;;;9.22;68.26
4981;BME280;2507;50.392;7.482;2023-04-20T07:27:45;100805.88;;;9.43;66.59
4981;BME280;2507;50.392;7.482;2023-04-20T07:30:11;100808.31;;;9.32;66.72
4981;BME280;2507;50.392;7.482;2023-04-20T07:32:38;100799.63;;;8.89;67.47
4981;BME280;2507;50.392;7.482;2023-04-20T07:35:04;100802.56;;;8.41;68.11
4981;BME280;2507;50.392;7.482;2023-04-20T07:37:29;100800.47;;;8.76;67.25
4981;BME280;2507;50.392;7.482;2023-04-20T07:39:56;100800.16;;;8.52;68.66
4981;BME280;2507;50.392;7.482;2023-04-20T07:42:21;100807.03;;;8.39;69.08
4981;BME280;2507;50.392;7.482;2023-04-20T07:44:47;100810.28;;;8.86;67.46
4981;BME280;2507;50.392;7.482;2023-04-20T07:47:12;100811.28;;;8.84;67.28
4981;BME280;2507;50.392;7.482;2023-04-20T07:49:38;100812.91;;;8.86;67.61
4981;BME280;2507;50.392;7.482;2023-04-20T07:52:05;100807.50;;;9.03;67.09
4981;BME280;2507;50.392;7.482;2023-04-20T07:54:30;100815.50;;;9.28;65.48
4981;BME280;2507;50.392;7.482;2023-04-20T07:56:57;100806.38;;;9.62;63.70
4981;BME280;2507;50.392;7.482;2023-04-20T07:59:22;100816.91;;;9.75;63.71
4981;BME280;2507;50.392;7.482;2023-04-20T08:01:47;100812.81;;;9.71;63.31
4981;BME280;2507;50.392;7.482;2023-04-20T08:04:12;100803.78;;;9.89;63.25
4981;BME280;2507;50.392;7.482;2023-04-20T08:06:38;100810.25;;;9.83;62.90
4981;BME280;2507;50.392;7.482;2023-04-20T08:09:03;100806.69;;;9.84;62.61
4981;BME280;2507;50.392;7.482;2023-04-20T08:11:28;100810.91;;;9.87;62.40
4981;BME280;2507;50.392;7.482;2023-04-20T08:13:54;100806.16;;;9.79;63.56
4981;BME280;2507;50.392;7.482;2023-04-20T08:16:19;100799.59;;;9.99;63.23
4981;BME280;2507;50.392;7.482;2023-04-20T08:18:45;100801.38;;;9.98;63.32
4981;BME280;2507;50.392;7.482;2023-04-20T08:21:10;100812.09;;;9.55;65.46
4981;BME280;2507;50.392;7.482;2023-04-20T08:23:35;100811.69;;;9.34;66.78
4981;BME280;2507;50.392;7.482;2023-04-20T08:26:00;100813.16;;;9.79;65.60
4981;BME280;2507;50.392;7.482;2023-04-20T08:28:26;100814.53;;;9.84;64.25
4981;BME280;2507;50.392;7.482;2023-04-20T08:30:53;100807.72;;;9.82;64.30
4981;BME280;2507;50.392;7.482;2023-04-20T08:33:18;100810.44;;;9.80;64.71
4981;BME280;2507;50.392;7.482;2023-04-20T08:35:43;100811.81;;;9.86;64.55
4981;BME280;2507;50.392;7.482;2023-04-20T08:38:09;100815.97;;;9.76;64.93
4981;BME280;2507;50.392;7.482;2023-04-20T08:40:35;100813.25;;;9.37;67.25
4981;BME280;2507;50.392;7.482;2023-04-20T08:43:00;100801.03;;;8.95;68.51
4981;BME280;2507;50.392;7.482;2023-04-20T08:45:26;100800.84;;;8.98;68.99
4981;BME280;2507;50.392;7.482;2023-04-20T08:47:52;100800.56;;;9.31;68.08
4981;BME280;2507;50.392;7.482;2023-04-20T08:50:19;100796.94;;;9.60;66.79
4981;BME280;2507;50.392;7.482;2023-04-20T08:52:44;100813.06;;;9.40;67.86
4981;BME280;2507;50.392;7.482;2023-04-20T08:55:14;100794.38;;;9.99;69.43
4981;BME280;2507;50.392;7.482;2023-04-20T08:57:40;100798.09;;;10.86;65.86
4981;BME280;2507;50.392;7.482;2023-04-20T09:00:07;100791.59;;;11.53;63.01
4981;BME280;2507;50.392;7.482;2023-04-20T09:02:34;100784.84;;;11.12;64.02
4981;BME280;2507;50.392;7.482;2023-04-20T09:05:03;100781.56;;;11.21;63.76
4981;BME280;2507;50.392;7.482;2023-04-20T09:07:29;100787.22;;;11.64;60.15
4981;BME280;2507;50.392;7.482;2023-04-20T09:09:59;100779.00;;;11.81;58.23
4981;BME280;2507;50.392;7.482;2023-04-20T09:12:25;100777.72;;;11.87;58.34
4981;BME280;2507;50.392;7.482;2023-04-20T09:14:51;100789.06;;;10.65;61.22
4981;BME280;2507;50.392;7.482;2023-04-20T09:17:30;100783.59;;;10.43;61.63
4981;BME280;2507;50.392;7.482;2023-04-20T09:19:55;100789.25;;;10.49;62.09
4981;BME280;2507;50.392;7.482;2023-04-20T09:22:36;100788.31;;;10.50;60.97
4981;BME280;2507;50.392;7.482;2023-04-20T09:25:12;100788.44;;;10.61;60.41
4981;BME280;2507;50.392;7.482;2023-04-20T09:27:37;100787.38;;;10.64;61.52
4981;BME280;2507;50.392;7.482;2023-04-20T09:30:03;100788.13;;;11.03;61.29
4981;BME280;2507;50.392;7.482;2023-04-20T09:32:28;100791.13;;;11.10;60.59
4981;BME280;2507;50.392;7.482;2023-04-20T09:34:54;100800.19;;;11.06;58.80
4981;BME280;2507;50.392;7.482;2023-04-20T09:37:20;100781.06;;;11.04;60.13
4981;BME280;2507;50.392;7.482;2023-04-20T09:39:46;100790.94;;;11.00;59.79
4981;BME280;2507;50.392;7.482;2023-04-20T09:42:13;100786.97;;;10.82;59.84
4981;BME280;2507;50.392;7.482;2023-04-20T09:44:39;100800.41;;;10.90;59.83
4981;BME280;2507;50.392;7.482;2023-04-20T09:47:05;100798.09;;;10.86;59.92
4981;BME280;2507;50.392;7.482;2023-04-20T09:49:32;100789.91;;;10.78;59.89
4981;BME280;2507;50.392;7.482;2023-04-20T09:52:00;100794.44;;;10.76;59.81
4981;BME280;2507;50.392;7.482;2023-04-20T09:54:27;100799.78;;;10.74;59.90
4981;BME280;2507;50.392;7.482;2023-04-20T09:56:53;100797.56;;;10.68;60.41
4981;BME280;2507;50.392;7.482;2023-04-20T09:59:20;100793.47;;;10.89;60.05
4981;BME280;2507;50.392;7.482;2023-04-20T10:01:45;100797.69;;;10.79;59.52
4981;BME280;2507;50.392;7.482;2023-04-20T10:04:10;100804.06;;;10.88;60.16
4981;BME280;2507;50.392;7.482;2023-04-20T10:06:39;100791.38;;;11.07;60.29
4981;BME280;2507;50.392;7.482;2023-04-20T10:09:06;100793.41;;;11.40;60.57
4981;BME280;2507;50.392;7.482;2023-04-20T10:11:36;100795.88;;;11.54;60.26
4981;BME280;2507;50.392;7.482;2023-04-20T10:14:19;100800.69;;;11.72;59.01
4981;BME280;2507;50.392;7.482;2023-04-20T10:16:45;100795.75;;;11.68;59.89
4981;BME280;2507;50.392;7.482;2023-04-20T10:19:21;100791.16;;;11.46;60.64
4981;BME280;2507;50.392;7.482;2023-04-20T10:21:48;100785.13;;;11.57;60.37
4981;BME280;2507;50.392;7.482;2023-04-20T10:24:14;100790.81;;;11.63;59.32
4981;BME280;2507;50.392;7.482;2023-04-20T10:26:42;100789.75;;;11.66;61.04
4981;BME280;2507;50.392;7.482;2023-04-20T10:29:09;100781.78;;;12.25;58.39
4981;BME280;2507;50.392;7.482;2023-04-20T10:31:41;100774.81;;;12.13;56.39
4981;BME280;2507;50.392;7.482;2023-04-20T10:34:08;100791.41;;;12.03;57.77
4981;BME280;2507;50.392;7.482;2023-04-20T10:36:35;100774.97;;;12.23;56.76
4981;BME280;2507;50.392;7.482;2023-04-20T10:39:13;100771.91;;;12.05;55.99
4981;BME280;2507;50.392;7.482;2023-04-20T10:41:50;100771.97;;;11.93;57.43
4981;BME280;2507;50.392;7.482;2023-04-20T10:44:15;100770.69;;;11.98;56.87
4981;BME280;2507;50.392;7.482;2023-04-20T10:46:41;100781.09;;;12.23;55.56
4981;BME280;2507;50.392;7.482;2023-04-20T10:49:06;100771.44;;;12.46;55.92
4981;BME280;2507;50.392;7.482;2023-04-20T10:51:31;100772.50;;;12.44;54.85
4981;BME280;2507;50.392;7.482;2023-04-20T10:54:04;100767.63;;;12.50;55.40
4981;BME280;2507;50.392;7.482;2023-04-20T10:56:46;100762.13;;;12.53;54.04
4981;BME280;2507;50.392;7.482;2023-04-20T10:59:16;100765.22;;;12.58;54.86
4981;BME280;2507;50.392;7.482;2023-04-20T11:01:43;100760.72;;;12.93;53.36
4981;BME280;2507;50.392;7.482;2023-04-20T11:04:09;100762.41;;;13.39;51.33
4981;BME280;2507;50.392;7.482;2023-04-20T11:06:37;100756.41;;;13.48;50.68
4981;BME280;2507;50.392;7.482;2023-04-20T11:09:07;100747.97;;;13.65;50.82
4981;BME280;2507;50.392;7.482;2023-04-20T11:11:40;100742.66;;;13.76;50.23
4981;BME280;2507;50.392;7.482;2023-04-20T11:14:09;100734.84;;;14.06;51.27
4981;BME280;2507;50.392;7.482;2023-04-20T11:16:35;100734.97;;;13.73;50.29
4981;BME280;2507;50.392;7.482;2023-04-20T11:19:01;100743.94;;;14.13;49.24
4981;BME280;2507;50.392;7.482;2023-04-20T11:21:35;100730.09;;;14.20;48.01
4981;BME280;2507;50.392;7.482;2023-04-20T11:24:02;100727.06;;;13.41;51.58
4981;BME280;2507;50.392;7.482;2023-04-20T11:26:37;100733.22;;;13.08;54.54
4981;BME280;2507;50.392;7.482;2023-04-20T11:29:02;100724.56;;;12.73;55.34
4981;BME280;2507;50.392;7.482;2023-04-20T11:31:28;100718.38;;;12.85;54.48
4981;BME280;2507;50.392;7.482;2023-04-20T11:33:53;100715.25;;;13.02;54.36
4981;BME280;2507;50.392;7.482;2023-04-20T11:36:23;100718.97;;;12.67;56.62
4981;BME280;2507;50.392;7.482;2023-04-20T11:38:48;100712.38;;;12.61;55.90
4981;BME280;2507;50.392;7.482;2023-04-20T11:41:15;100712.97;;;12.65;54.60
4981;BME280;2507;50.392;7.482;2023-04-20T11:43:40;100697.03;;;12.99;54.78
4981;BME280;2507;50.392;7.482;2023-04-20T11:46:15;100698.84;;;13.10;54.69
4981;BME280;2507;50.392;7.482;2023-04-20T11:48:41;100693.69;;;13.51;55.34
4981;BME280;2507;50.392;7.482;2023-04-20T11:51:06;100691.03;;;13.30;56.54
4981;BME280;2507;50.392;7.482;2023-04-20T11:53:32;100688.06;;;13.56;54.17
4981;BME280;2507;50.392;7.482;2023-04-20T11:55:57;100689.47;;;13.28;58.19
4981;BME280;2507;50.392;7.482;2023-04-20T11:58:22;100698.81;;;12.99;54.55
4981;BME280;2507;50.392;7.482;2023-04-20T12:00:48;100684.13;;;12.85;53.31
4981;BME280;2507;50.392;7.482;2023-04-20T12:03:13;100698.97;;;12.75;56.22
4981;BME280;2507;50.392;7.482;2023-04-20T12:05:38;100691.53;;;13.02;53.80
4981;BME280;2507;50.392;7.482;2023-04-20T12:08:04;100679.91;;;13.59;51.84
4981;BME280;2507;50.392;7.482;2023-04-20T12:10:30;100672.16;;;13.98;54.63
4981;BME280;2507;50.392;7.482;2023-04-20T12:12:55;100669.41;;;14.41;47.70
4981;BME280;2507;50.392;7.482;2023-04-20T12:15:21;100667.72;;;13.99;50.02
4981;BME280;2507;50.392;7.482;2023-04-20T12:17:46;100657.50;;;13.85;50.81
4981;BME280;2507;50.392;7.482;2023-04-20T12:20:12;100651.47;;;14.24;48.07
4981;BME280;2507;50.392;7.482;2023-04-20T12:22:38;100639.06;;;14.15;49.22
4981;BME280;2507;50.392;7.482;2023-04-20T12:25:04;100643.69;;;14.73;45.84
4981;BME280;2507;50.392;7.482;2023-04-20T12:27:30;100636.97;;;15.09;48.71
4981;BME280;2507;50.392;7.482;2023-04-20T12:29:55;100639.56;;;14.50;47.59
4981;BME280;2507;50.392;7.482;2023-04-20T12:32:20;100638.25;;;13.94;50.51
4981;BME280;2507;50.392;7.482;2023-04-20T12:34:45;100637.56;;;14.22;49.99
4981;BME280;2507;50.392;7.482;2023-04-20T12:37:11;100626.38;;;14.50;46.60
4981;BME280;2507;50.392;7.482;2023-04-20T12:39:36;100636.88;;;14.41;46.54
4981;BME280;2507;50.392;7.482;2023-04-20T12:42:01;100614.94;;;13.78;47.25
4981;BME280;2507;50.392;7.482;2023-04-20T12:44:28;100619.47;;;13.67;50.50
4981;BME280;2507;50.392;7.482;2023-04-20T12:46:53;100613.72;;;13.82;48.96
4981;BME280;2507;50.392;7.482;2023-04-20T12:49:18;100612.31;;;13.99;48.92
4981;BME280;2507;50.392;7.482;2023-04-20T12:51:43;100608.94;;;14.17;47.78
4981;BME280;2507;50.392;7.482;2023-04-20T12:54:09;100611.41;;;14.30;49.19
4981;BME280;2507;50.392;7.482;2023-04-20T12:56:34;100611.97;;;14.73;44.93
4981;BME280;2507;50.392;7.482;2023-04-20T12:59:00;100611.97;;;14.73;45.47
4981;BME280;2507;50.392;7.482;2023-04-20T13:01:25;100611.50;;;13.78;48.63
4981;BME280;2507;50.392;7.482;2023-04-20T13:03:50;100608.00;;;13.57;48.18
4981;BME280;2507;50.392;7.482;2023-04-20T13:06:16;100610.59;;;13.88;47.06
4981;BME280;2507;50.392;7.482;2023-04-20T13:08:41;100601.59;;;13.70;46.68
4981;BME280;2507;50.392;7.482;2023-04-20T13:11:06;100600.31;;;13.85;46.75